createdAt,value
2018-10-21T00:02:16.498Z,12.50
2018-10-21T00:04:47.314Z,12.50
2018-10-21T00:07:18.205Z,12.40
2018-10-21T00:09:49.027Z,12.40
2018-10-21T00:12:19.823Z,12.30
2018-10-21T00:14:50.578Z,12.20
2018-10-21T00:17:21.565Z,12.20
2018-10-21T00:19:52.523Z,12.10
2018-10-21T00:22:23.550Z,12.10
2018-10-21T00:24:54.489Z,12.10
2018-10-21T00:27:25.378Z,12.00
2018-10-21T00:29:56.113Z,11.90
2018-10-21T00:32:31.957Z,11.90
2018-10-21T00:35:02.840Z,11.90
2018-10-21T00:37:34.104Z,11.80
2018-10-21T00:40:05.001Z,11.80
2018-10-21T00:42:35.872Z,11.70
2018-10-21T00:45:11.286Z,11.70
2018-10-21T00:47:42.068Z,11.70
2018-10-21T00:50:12.955Z,11.70
2018-10-21T00:52:43.764Z,11.60
2018-10-21T00:55:14.466Z,11.50
2018-10-21T00:57:46.200Z,11.40
2018-10-21T01:00:16.884Z,11.30
2018-10-21T01:02:52.222Z,11.20
2018-10-21T01:05:23.384Z,11.10
2018-10-21T01:07:54.977Z,11.20
2018-10-21T01:10:28.812Z,11.20
2018-10-21T01:12:59.972Z,11.20
2018-10-21T01:15:31.072Z,11.20
2018-10-21T01:18:01.820Z,11.10
2018-10-21T01:20:32.623Z,11.00
2018-10-21T01:23:03.521Z,11.00
2018-10-21T01:25:34.255Z,11.10
2018-10-21T01:28:05.108Z,11.10
2018-10-21T01:30:35.937Z,11.00
2018-10-21T01:33:06.950Z,10.80
2018-10-21T01:35:37.817Z,10.80
2018-10-21T01:38:08.670Z,10.90
2018-10-21T01:40:43.206Z,10.90
2018-10-21T01:43:15.791Z,11.00
2018-10-21T01:45:46.772Z,11.10
2018-10-21T01:48:18.685Z,11.10
2018-10-21T01:50:49.488Z,11.10
2018-10-21T01:53:20.785Z,11.20
2018-10-21T01:55:51.616Z,11.20
2018-10-21T01:58:22.372Z,11.20
2018-10-21T02:00:53.034Z,11.10
2018-10-21T02:03:23.944Z,11.10
2018-10-21T02:05:54.879Z,11.00
2018-10-21T02:08:25.861Z,11.00
2018-10-21T02:10:56.527Z,11.00
2018-10-21T02:13:27.286Z,11.00
2018-10-21T02:15:58.323Z,11.10
2018-10-21T02:18:29.294Z,11.10
2018-10-21T02:21:00.186Z,11.20
2018-10-21T02:23:31.145Z,11.00
2018-10-21T02:26:02.017Z,10.80
2018-10-21T02:28:33.180Z,10.80
2018-10-21T02:31:03.952Z,10.70
2018-10-21T02:33:34.936Z,10.60
2018-10-21T02:36:05.604Z,10.50
2018-10-21T02:38:36.376Z,10.50
2018-10-21T02:41:41.159Z,10.50
2018-10-21T02:44:13.341Z,10.40
2018-10-21T02:46:44.639Z,10.30
2018-10-21T02:49:16.081Z,10.30
2018-10-21T02:51:52.069Z,10.10
2018-10-21T02:54:26.687Z,9.90
2018-10-21T02:56:57.592Z,9.80
2018-10-21T02:59:28.567Z,9.80
2018-10-21T03:01:59.377Z,9.80
2018-10-21T03:04:30.266Z,9.90
2018-10-21T03:07:00.999Z,9.90
2018-10-21T03:09:32.155Z,10.00
2018-10-21T03:12:02.822Z,10.00
2018-10-21T03:14:34.484Z,10.10
2018-10-21T03:17:05.393Z,10.10
2018-10-21T03:19:36.300Z,10.00
2018-10-21T03:22:07.255Z,10.00
2018-10-21T03:24:38.206Z,9.90
2018-10-21T03:27:09.164Z,9.90
2018-10-21T03:29:39.810Z,9.90
2018-10-21T03:32:10.579Z,9.90
2018-10-21T03:34:41.276Z,9.90
2018-10-21T03:37:12.314Z,9.90
2018-10-21T03:39:43.228Z,9.90
2018-10-21T03:42:14.190Z,9.90
2018-10-21T03:44:44.999Z,9.90
2018-10-21T03:47:15.623Z,9.90
2018-10-21T03:49:47.448Z,9.90
2018-10-21T03:52:18.388Z,9.90
2018-10-21T03:54:49.316Z,9.80
2018-10-21T03:57:20.181Z,9.80
2018-10-21T03:59:50.849Z,9.70
2018-10-21T04:02:21.699Z,9.70
2018-10-21T04:04:52.638Z,9.60
2018-10-21T04:07:23.536Z,9.60
2018-10-21T04:09:54.754Z,9.50
2018-10-21T04:12:25.657Z,9.50
2018-10-21T04:14:56.473Z,9.50
2018-10-21T04:17:27.256Z,9.50
2018-10-21T04:19:57.984Z,9.50
2018-10-21T04:22:28.522Z,9.40
2018-10-21T04:24:59.436Z,9.30
2018-10-21T04:27:30.286Z,9.00
2018-10-21T04:30:01.033Z,8.90
2018-10-21T04:32:33.782Z,8.80
2018-10-21T04:35:04.395Z,8.80
2018-10-21T04:38:26.248Z,8.80
2018-10-21T04:40:58.106Z,8.80
2018-10-21T04:43:28.874Z,8.90
2018-10-21T04:45:59.763Z,9.00
2018-10-21T04:48:30.489Z,9.00
2018-10-21T04:51:01.382Z,9.00
2018-10-21T04:53:33.148Z,9.00
2018-10-21T04:56:04.249Z,9.00
2018-10-21T04:58:35.883Z,8.90
2018-10-21T05:01:07.062Z,8.80
2018-10-21T05:03:38.407Z,8.80
2018-10-21T05:06:09.394Z,8.70
2018-10-21T05:08:40.280Z,8.60
2018-10-21T05:11:11.135Z,8.50
2018-10-21T05:13:48.334Z,8.40
2018-10-21T05:16:19.437Z,8.40
2018-10-21T05:18:50.305Z,8.40
2018-10-21T05:21:21.191Z,8.40
2018-10-21T05:23:51.939Z,8.40
2018-10-21T05:26:23.092Z,8.40
2018-10-21T05:28:54.003Z,8.50
2018-10-21T05:31:24.723Z,8.50
2018-10-21T05:33:55.565Z,8.50
2018-10-21T05:36:26.509Z,8.60
2018-10-21T05:38:58.114Z,8.50
2018-10-21T05:41:29.088Z,8.40
2018-10-21T05:44:00.133Z,8.50
2018-10-21T05:46:52.771Z,8.50
2018-10-21T05:49:23.888Z,8.40
2018-10-21T05:51:55.068Z,8.20
2018-10-21T05:54:25.965Z,8.00
2018-10-21T05:56:56.972Z,7.90
2018-10-21T05:59:28.073Z,7.90
2018-10-21T06:01:58.992Z,7.90
2018-10-21T06:04:31.124Z,7.90
2018-10-21T06:07:02.111Z,8.00
2018-10-21T06:09:33.182Z,8.10
2018-10-21T06:12:04.102Z,8.60
2018-10-21T06:14:35.072Z,9.00
2018-10-21T06:17:36.341Z,9.50
2018-10-21T06:20:16.916Z,9.70
2018-10-21T06:22:49.044Z,10.60
2018-10-21T06:25:19.924Z,11.10
2018-10-21T06:27:50.835Z,11.60
2018-10-21T06:30:22.850Z,12.20
2018-10-21T06:32:55.498Z,11.70
2018-10-21T06:35:27.080Z,11.30
2018-10-21T06:37:57.926Z,11.00
2018-10-21T06:40:29.757Z,11.10
2018-10-21T06:43:00.597Z,11.70
2018-10-21T06:45:31.575Z,12.50
2018-10-21T06:48:03.085Z,12.90
2018-10-21T06:50:34.111Z,13.50
2018-10-21T06:53:05.249Z,13.80
2018-10-21T06:55:36.284Z,14.00
2018-10-21T06:58:07.838Z,14.40
2018-10-21T07:00:38.825Z,14.80
2018-10-21T07:03:10.035Z,15.40
2018-10-21T07:06:19.401Z,15.70
2018-10-21T07:08:51.861Z,16.30
2018-10-21T07:11:23.400Z,16.40
2018-10-21T07:13:54.863Z,16.60
2018-10-21T07:16:27.565Z,16.50
2018-10-21T07:18:59.744Z,15.80
2018-10-21T07:21:31.381Z,15.90
2018-10-21T07:24:03.341Z,16.20
2018-10-21T07:26:34.612Z,16.50
2018-10-21T07:29:06.794Z,17.50
2018-10-21T07:31:37.841Z,18.00
2018-10-21T07:34:09.107Z,18.20
2018-10-21T07:36:40.314Z,17.90
2018-10-21T07:39:12.701Z,18.40
2018-10-21T07:41:43.998Z,18.80
2018-10-21T07:44:15.719Z,19.50
2018-10-21T07:46:47.634Z,19.50
2018-10-21T07:49:19.569Z,20.10
2018-10-21T07:51:50.650Z,20.60
2018-10-21T07:54:21.889Z,21.00
2018-10-21T07:56:52.905Z,20.90
2018-10-21T07:59:25.252Z,20.80
2018-10-21T08:01:56.453Z,21.10
2018-10-21T08:04:28.183Z,21.30
2018-10-21T08:07:15.345Z,21.60
2018-10-21T08:09:46.196Z,21.90
2018-10-21T08:12:17.309Z,21.90
2018-10-21T08:14:49.097Z,22.10
2018-10-21T08:17:20.378Z,22.00
2018-10-21T08:19:51.601Z,21.80
2018-10-21T08:22:23.347Z,21.90
2018-10-21T08:24:54.775Z,22.10
2018-10-21T08:27:26.899Z,22.70
2018-10-21T08:29:58.612Z,22.70
2018-10-21T08:32:29.878Z,23.00
2018-10-21T08:35:02.172Z,23.40
2018-10-21T08:37:33.195Z,24.00
2018-10-21T08:40:04.458Z,24.40
2018-10-21T08:42:35.524Z,24.20
2018-10-21T08:45:06.809Z,24.80
2018-10-21T08:47:37.839Z,25.10
2018-10-21T08:50:09.232Z,24.90
2018-10-21T08:52:40.418Z,25.20
2018-10-21T08:55:12.324Z,25.20
2018-10-21T08:57:44.531Z,25.50
2018-10-21T09:00:18.930Z,25.60
2018-10-21T09:02:51.043Z,25.80
2018-10-21T09:05:22.308Z,26.00
2018-10-21T09:07:53.728Z,26.30
2018-10-21T09:10:25.219Z,26.50
2018-10-21T09:12:56.653Z,26.70
2018-10-21T09:15:27.854Z,27.10
2018-10-21T09:17:59.042Z,27.70
2018-10-21T09:20:29.990Z,27.80
2018-10-21T09:23:02.443Z,27.80
2018-10-21T09:25:34.468Z,28.20
2018-10-21T09:28:05.646Z,28.40
2018-10-21T09:30:36.444Z,28.60
2018-10-21T09:33:07.620Z,28.60
2018-10-21T09:35:38.719Z,28.60
2018-10-21T09:38:10.681Z,28.50
2018-10-21T09:40:41.721Z,28.40
2018-10-21T09:43:13.622Z,28.40
2018-10-21T09:45:44.634Z,28.70
2018-10-21T09:48:16.176Z,29.00
2018-10-21T09:50:47.180Z,29.10
2018-10-21T09:53:18.074Z,29.30
2018-10-21T09:55:49.107Z,29.50
2018-10-21T09:58:20.147Z,28.50
2018-10-21T10:00:56.647Z,28.90
2018-10-21T10:03:27.806Z,29.30
2018-10-21T10:05:59.020Z,29.80
2018-10-21T10:08:29.976Z,29.30
2018-10-21T10:11:01.265Z,29.10
2018-10-21T10:13:33.324Z,30.10
2018-10-21T10:16:05.028Z,30.40
2018-10-21T10:18:36.264Z,30.10
2018-10-21T10:21:08.273Z,29.90
2018-10-21T10:23:39.455Z,29.90
2018-10-21T10:26:10.849Z,29.60
2018-10-21T10:28:42.273Z,29.80
2018-10-21T10:31:14.089Z,29.40
2018-10-21T10:33:45.083Z,29.80
2018-10-21T10:36:16.416Z,30.10
2018-10-21T10:38:48.538Z,30.30
2018-10-21T10:41:22.653Z,30.50
2018-10-21T10:43:54.929Z,30.80
2018-10-21T10:46:27.225Z,30.80
2018-10-21T10:48:58.452Z,30.90
2018-10-21T10:51:29.594Z,31.30
2018-10-21T10:54:00.692Z,30.50
2018-10-21T10:56:32.233Z,30.40
2018-10-21T10:59:03.606Z,30.70
2018-10-21T11:01:34.517Z,30.40
2018-10-21T11:04:06.419Z,30.50
2018-10-21T11:06:38.258Z,30.50
2018-10-21T11:09:11.357Z,31.00
2018-10-21T11:11:42.885Z,31.40
2018-10-21T11:14:13.951Z,30.80
2018-10-21T11:16:44.980Z,30.30
2018-10-21T11:19:16.076Z,30.30
2018-10-21T11:21:48.816Z,30.30
2018-10-21T11:24:19.842Z,29.50
2018-10-21T11:26:50.965Z,30.50
2018-10-21T11:29:23.747Z,30.70
2018-10-21T11:31:55.162Z,31.90
2018-10-21T11:34:25.974Z,32.50
2018-10-21T11:36:57.090Z,33.00
2018-10-21T11:39:28.784Z,32.90
2018-10-21T11:41:59.493Z,33.20
2018-10-21T11:44:30.913Z,33.60
2018-10-21T11:47:01.689Z,33.70
2018-10-21T11:49:34.337Z,34.70
2018-10-21T11:52:06.105Z,34.10
2018-10-21T11:54:37.207Z,32.70
2018-10-21T11:57:09.748Z,32.30
2018-10-21T11:59:42.727Z,32.10
2018-10-21T12:02:18.003Z,31.30
2018-10-21T12:04:49.602Z,31.10
2018-10-21T12:07:21.844Z,30.50
2018-10-21T12:09:53.668Z,30.10
2018-10-21T12:12:24.912Z,29.80
2018-10-21T12:14:56.367Z,29.70
2018-10-21T12:17:27.836Z,29.10
2018-10-21T12:19:59.326Z,28.80
2018-10-21T12:22:33.090Z,28.10
2018-10-21T12:25:06.445Z,27.90
2018-10-21T12:27:38.067Z,27.70
2018-10-21T12:30:09.873Z,27.00
2018-10-21T12:32:42.320Z,26.90
2018-10-21T12:35:14.859Z,26.50
2018-10-21T12:37:47.038Z,26.40
2018-10-21T12:40:19.876Z,26.20
2018-10-21T12:42:52.505Z,26.10
2018-10-21T12:45:23.767Z,25.80
2018-10-21T12:47:55.239Z,25.50
2018-10-21T12:50:28.093Z,25.20
2018-10-21T12:53:01.393Z,25.10
2018-10-21T12:55:32.599Z,25.00
2018-10-21T12:58:04.376Z,24.80
2018-10-21T13:00:36.040Z,24.70
2018-10-21T13:03:08.028Z,24.50
2018-10-21T13:05:40.518Z,24.40
2018-10-21T13:08:12.485Z,24.30
2018-10-21T13:10:44.000Z,24.10
2018-10-21T13:13:16.075Z,24.10
2018-10-21T13:15:47.812Z,24.10
2018-10-21T13:18:19.495Z,24.10
2018-10-21T13:20:50.866Z,24.10
2018-10-21T13:23:21.865Z,24.00
2018-10-21T13:25:53.077Z,24.00
2018-10-21T13:28:24.908Z,23.90
2018-10-21T13:30:57.567Z,23.80
2018-10-21T13:33:29.658Z,23.70
2018-10-21T13:36:00.820Z,23.60
2018-10-21T13:38:31.925Z,23.60
2018-10-21T13:41:03.403Z,23.70
2018-10-21T13:43:34.561Z,23.60
2018-10-21T13:46:06.491Z,23.60
2018-10-21T13:48:38.670Z,23.80
2018-10-21T13:51:10.010Z,23.80
2018-10-21T13:53:42.764Z,23.60
2018-10-21T13:56:15.383Z,23.50
2018-10-21T13:58:48.826Z,23.40
2018-10-21T14:01:21.339Z,23.40
2018-10-21T14:03:54.292Z,23.10
2018-10-21T14:06:25.448Z,23.00
2018-10-21T14:08:56.837Z,22.80
2018-10-21T14:11:27.976Z,22.90
2018-10-21T14:13:59.217Z,23.00
2018-10-21T14:16:30.762Z,23.20
2018-10-21T14:19:01.623Z,23.20
2018-10-21T14:21:33.629Z,23.50
2018-10-21T14:24:05.183Z,23.80
2018-10-21T14:26:36.408Z,23.80
2018-10-21T14:29:07.559Z,23.70
2018-10-21T14:31:39.094Z,23.50
2018-10-21T14:34:10.206Z,23.30
2018-10-21T14:36:41.392Z,23.20
2018-10-21T14:39:14.141Z,23.30
2018-10-21T14:41:46.253Z,23.20
2018-10-21T14:44:21.849Z,23.20
2018-10-21T14:46:53.071Z,23.20
2018-10-21T14:49:24.008Z,23.20
2018-10-21T14:51:55.168Z,23.00
2018-10-21T14:54:26.486Z,23.10
2018-10-21T14:56:57.555Z,22.90
2018-10-21T14:59:28.606Z,22.70
2018-10-21T15:01:59.754Z,22.40
2018-10-21T15:04:30.738Z,22.20
2018-10-21T15:07:01.612Z,22.00
2018-10-21T15:09:32.730Z,21.70
2018-10-21T15:12:03.827Z,21.70
2018-10-21T15:14:34.969Z,21.70
2018-10-21T15:17:06.197Z,21.70
2018-10-21T15:19:37.179Z,21.70
2018-10-21T15:22:08.758Z,21.40
2018-10-21T15:24:39.700Z,21.40
2018-10-21T15:27:10.801Z,21.30
2018-10-21T15:29:42.184Z,21.20
2018-10-21T15:32:13.158Z,21.10
2018-10-21T15:34:44.608Z,21.10
2018-10-21T15:37:15.477Z,21.00
2018-10-21T15:39:47.133Z,20.90
2018-10-21T15:42:18.050Z,20.80
2018-10-21T15:44:49.187Z,20.70
2018-10-21T15:47:22.059Z,20.60
2018-10-21T15:49:52.950Z,20.50
2018-10-21T15:52:24.459Z,20.40
2018-10-21T15:54:55.392Z,20.30
2018-10-21T15:57:27.609Z,20.10
2018-10-21T15:59:58.944Z,19.90
2018-10-21T16:02:30.188Z,19.80
2018-10-21T16:05:02.018Z,19.70
2018-10-21T16:07:33.674Z,19.50
2018-10-21T16:10:04.903Z,19.30
2018-10-21T16:12:37.440Z,19.20
2018-10-21T16:15:14.291Z,19.10
2018-10-21T16:17:47.024Z,19.10
2018-10-21T16:20:20.148Z,19.00
2018-10-21T16:22:52.772Z,18.90
2018-10-21T16:25:24.778Z,18.90
2018-10-21T16:27:58.373Z,18.90
2018-10-21T16:30:29.813Z,18.90
2018-10-21T16:33:01.880Z,18.90
2018-10-21T16:35:33.095Z,18.80
2018-10-21T16:38:04.102Z,18.80
2018-10-21T16:40:35.435Z,18.70
2018-10-21T16:43:06.740Z,18.50
2018-10-21T16:45:38.151Z,17.90
2018-10-21T16:48:10.658Z,17.40
2018-10-21T16:50:43.856Z,16.50
2018-10-21T16:53:15.344Z,15.90
2018-10-21T16:55:47.982Z,15.00
2018-10-21T16:58:19.291Z,14.30
2018-10-21T17:00:51.978Z,14.00
2018-10-21T17:03:29.772Z,13.80
2018-10-21T17:06:01.768Z,13.50
2018-10-21T17:08:33.204Z,13.20
2018-10-21T17:11:05.372Z,13.20
2018-10-21T17:13:37.592Z,13.20
2018-10-21T17:16:11.148Z,13.20
2018-10-21T17:18:50.994Z,13.20
2018-10-21T17:21:24.467Z,13.20
2018-10-21T17:23:59.766Z,13.20
2018-10-21T17:26:32.725Z,13.20
2018-10-21T17:29:08.895Z,13.30
2018-10-21T17:31:40.584Z,13.20
2018-10-21T17:34:12.710Z,13.20
2018-10-21T17:36:45.180Z,13.30
2018-10-21T17:39:20.326Z,13.30
2018-10-21T17:41:52.349Z,13.30
2018-10-21T17:44:24.585Z,13.40
2018-10-21T17:46:57.577Z,13.30
2018-10-21T17:49:31.347Z,13.30
2018-10-21T17:52:04.209Z,13.20
2018-10-21T17:54:39.768Z,13.30
2018-10-21T17:57:14.417Z,13.40
2018-10-21T17:59:46.907Z,13.40
2018-10-21T18:02:19.893Z,13.20
2018-10-21T18:04:51.105Z,13.20
2018-10-21T18:07:23.043Z,13.00
2018-10-21T18:09:54.957Z,12.90
2018-10-21T18:12:26.321Z,12.70
2018-10-21T18:15:00.322Z,12.50
2018-10-21T18:17:32.303Z,12.50
2018-10-21T18:20:07.605Z,12.30
2018-10-21T18:22:40.450Z,12.20
2018-10-21T18:25:12.195Z,12.10
2018-10-21T18:27:44.322Z,12.00
2018-10-21T18:30:16.938Z,11.90
2018-10-21T18:32:50.680Z,11.90
2018-10-21T18:35:25.261Z,11.90
2018-10-21T18:38:00.655Z,11.80
2018-10-21T18:40:35.885Z,11.80
2018-10-21T18:43:10.041Z,11.80
2018-10-21T18:45:43.574Z,11.80
2018-10-21T18:48:19.996Z,11.90
2018-10-21T18:50:52.948Z,11.80
2018-10-21T18:53:26.105Z,11.90
2018-10-21T18:56:00.379Z,11.90
2018-10-21T18:58:33.647Z,11.90
2018-10-21T19:01:06.710Z,11.90
2018-10-21T19:03:43.453Z,11.80
2018-10-21T19:06:18.185Z,11.80
2018-10-21T19:08:55.283Z,11.90
2018-10-21T19:11:30.289Z,11.90
2018-10-21T19:14:03.799Z,12.00
2018-10-21T19:16:38.285Z,12.00
2018-10-21T19:19:11.454Z,12.00
2018-10-21T19:21:44.342Z,11.90
2018-10-21T19:24:16.531Z,11.90
2018-10-21T19:26:49.022Z,11.90
2018-10-21T19:29:21.001Z,11.90
2018-10-21T19:31:54.018Z,11.80
2018-10-21T19:34:26.474Z,11.80
2018-10-21T19:37:01.125Z,11.80
2018-10-21T19:39:34.709Z,11.80
2018-10-21T19:42:13.084Z,11.70
2018-10-21T19:44:45.128Z,11.80
2018-10-21T19:47:18.944Z,11.80
2018-10-21T19:49:50.678Z,11.80
2018-10-21T19:52:23.401Z,11.80
2018-10-21T19:54:58.197Z,11.80
2018-10-21T19:57:30.818Z,11.80
2018-10-21T20:00:05.529Z,11.80
2018-10-21T20:02:39.704Z,11.90
2018-10-21T20:05:13.388Z,11.80
2018-10-21T20:07:45.536Z,11.80
2018-10-21T20:10:21.395Z,11.80
2018-10-21T20:12:57.141Z,11.80
2018-10-21T20:15:29.748Z,11.80
2018-10-21T20:18:03.059Z,11.70
2018-10-21T20:20:36.275Z,11.70
2018-10-21T20:23:13.729Z,11.70
2018-10-21T20:25:48.396Z,11.70
2018-10-21T20:28:20.983Z,11.70
2018-10-21T20:30:57.411Z,11.60
2018-10-21T20:33:34.136Z,11.60
2018-10-21T20:36:05.902Z,11.50
2018-10-21T20:38:36.910Z,11.50
2018-10-21T20:41:08.296Z,11.40
2018-10-21T20:43:40.253Z,11.40
2018-10-21T20:46:11.440Z,11.40
2018-10-21T20:48:43.876Z,11.30
2018-10-21T20:51:15.554Z,11.30
2018-10-21T20:53:46.819Z,11.30
2018-10-21T20:56:18.527Z,11.20
2018-10-21T20:58:50.589Z,11.10
2018-10-21T21:01:22.406Z,11.10
2018-10-21T21:03:54.998Z,11.00
2018-10-21T21:06:27.437Z,11.00
2018-10-21T21:08:59.665Z,10.90
2018-10-21T21:11:32.208Z,10.80
2018-10-21T21:14:03.588Z,10.80
2018-10-21T21:16:35.265Z,10.80
2018-10-21T21:19:06.657Z,10.70
2018-10-21T21:21:37.639Z,10.70
2018-10-21T21:24:09.680Z,10.70
2018-10-21T21:26:40.811Z,10.60
2018-10-21T21:29:11.836Z,10.60
2018-10-21T21:31:43.677Z,10.60
2018-10-21T21:34:14.982Z,10.60
2018-10-21T21:36:45.913Z,10.60
2018-10-21T21:39:23.938Z,10.50
2018-10-21T21:41:54.949Z,10.50
2018-10-21T21:44:25.748Z,10.50
2018-10-21T21:46:57.202Z,10.50
2018-10-21T21:49:28.171Z,10.40
2018-10-21T21:51:59.290Z,10.40
2018-10-21T21:54:30.132Z,10.40
2018-10-21T21:57:00.983Z,10.40
2018-10-21T21:59:31.896Z,10.30
2018-10-21T22:02:02.848Z,10.40
2018-10-21T22:04:33.695Z,10.30
2018-10-21T22:07:04.682Z,10.30
2018-10-21T22:09:35.518Z,10.30
2018-10-21T22:12:06.760Z,10.30
2018-10-21T22:14:37.554Z,10.20
2018-10-21T22:17:08.994Z,10.30
2018-10-21T22:19:39.734Z,10.30
2018-10-21T22:22:10.684Z,10.30
2018-10-21T22:24:41.779Z,10.30
2018-10-21T22:27:12.700Z,10.30
2018-10-21T22:29:43.367Z,10.40
2018-10-21T22:32:14.627Z,10.40
2018-10-21T22:34:45.534Z,10.40
2018-10-21T22:37:16.289Z,10.40
2018-10-21T22:39:47.038Z,10.40
2018-10-21T22:42:18.322Z,10.40
2018-10-21T22:44:49.197Z,10.40
2018-10-21T22:47:20.051Z,10.40
2018-10-21T22:49:53.699Z,10.40
2018-10-21T22:52:24.524Z,10.40
2018-10-21T22:54:55.386Z,10.40
2018-10-21T22:57:26.844Z,10.40
2018-10-21T22:59:57.994Z,10.50
2018-10-21T23:02:28.736Z,10.50
2018-10-21T23:04:59.565Z,10.50
2018-10-21T23:07:30.651Z,10.50
2018-10-21T23:10:01.401Z,10.50
2018-10-21T23:12:32.406Z,10.60
2018-10-21T23:15:03.278Z,10.60
2018-10-21T23:17:34.098Z,10.70
2018-10-21T23:20:04.982Z,10.70
2018-10-21T23:22:35.677Z,10.70
2018-10-21T23:25:07.017Z,10.80
2018-10-21T23:27:37.899Z,10.80
2018-10-21T23:30:09.347Z,10.90
2018-10-21T23:32:39.905Z,10.90
2018-10-21T23:35:10.971Z,10.90
2018-10-21T23:37:42.033Z,10.90
2018-10-21T23:40:12.957Z,10.90
2018-10-21T23:42:43.974Z,11.00
2018-10-21T23:45:14.827Z,11.00
2018-10-21T23:47:45.563Z,11.00
2018-10-21T23:50:16.218Z,11.00
2018-10-21T23:52:47.101Z,11.10
2018-10-21T23:55:17.977Z,11.10
2018-10-21T23:57:48.722Z,11.10
